Hong Xiang 2 — BYBA — position and weather

sailwx.info

Track history (hours):
 
Tides and Currents Weather Stations Pressure Air Temp Water Temp Dewpoint Dewpoint Depression Visibility Wind Speed Wind Dir Waves Ship Positions

Hong Xiang 2

Last reported at 2015-Jan-31 00:32 UTC. Time now 2015-Jan-31 00:48 UTC.
Position N 22°02' E 113°45'.

Length 96 m; draft 4.5 m.

Type: Ship (hazmat cat A). MMSI: 413413000.

Date/timePositionNaut miles runAvg speedWind from/ knotsBaromVisibWave heightAir tempDewpointWater temp
2015-Jan-31 00:32N 22°02' E 113°45'5 5.2
2015-Jan-30 23:30N 21°59' E 113°41'0 0.0
2015-Jan-30 22:30N 21°59' E 113°41'0 0.0
2015-Jan-30 21:30N 21°59' E 113°41'0 0.0
2015-Jan-30 20:30N 21°59' E 113°41'0 0.0
2015-Jan-30 15:30N 21°59' E 113°41'0 0.0
2015-Jan-30 11:30N 21°59' E 113°41'0 0.0
2015-Jan-30 10:30N 21°59' E 113°41'0 0.0
2015-Jan-30 09:30N 21°59' E 113°41'0 0.0
2015-Jan-30 08:30N 21°59' E 113°41'0 0.0
2015-Jan-30 07:18N 21°59' E 113°41'0 0.0
2015-Jan-30 06:30N 21°59' E 113°41'0 0.0
2015-Jan-30 05:30N 21°59' E 113°41'0 0.0
2015-Jan-30 04:30N 21°59' E 113°41'0 0.0
2015-Jan-30 03:24N 21°59' E 113°41'0 0.0
2015-Jan-30 02:12N 21°59' E 113°41'0 0.0
2015-Jan-30 01:24N 21°59' E 113°41'0 0.0
2015-Jan-29 21:24N 21°59' E 113°41'0 0.0
2015-Jan-29 18:30N 21°59' E 113°41'0 0.0
2015-Jan-29 17:12N 21°59' E 113°41'0 0.0
2015-Jan-29 16:30N 21°59' E 113°41'0 0.0
2015-Jan-29 15:33N 21°59' E 113°41'21 9.9
2015-Jan-29 13:25N 21°48' E 113°21'  
2015-Jan-27 07:30N 21°35' E 112°59'1411.3
2015-Jan-27 06:18N 21°42' E 113°11'1111.3
2015-Jan-27 05:21N 21°48' E 113°21'2011.1
2015-Jan-27 03:33N 21°58' E 113°39'1111.1
2015-Jan-27 02:34N 22°03' E 113°50'18 1.8
2015-Jan-26 16:17N 22°08' E 114°09'911.2
2015-Jan-26 15:30N 22°09' E 114°18'14110.8
2015-Jan-26 02:23N 22°59' E 116°41'1211.2
2015-Jan-26 01:21N 23°04' E 116°52'4811.2
2015-Jan-25 21:04N 23°33' E 117°34'610.9
2015-Jan-25 20:33N 23°36' E 117°39'1110.3
2015-Jan-25 19:26N 23°44' E 117°48'910.0
2015-Jan-25 18:31N 23°50' E 117°55'11 9.9
2015-Jan-25 17:26N 23°57' E 118°04'8 9.2
2015-Jan-25 16:33N 24°03' E 118°10'10 9.6
2015-Jan-25 15:31N 24°10' E 118°18'39 9.8
2015-Jan-25 11:33N 24°37' E 118°48'1010.4
2015-Jan-25 10:33N 24°45' E 118°56'1110.7
2015-Jan-25 09:33N 24°54' E 119°03'1110.8
2015-Jan-25 08:33N 25°04' E 119°01'5 5.4
2015-Jan-25 07:33N 25°03' E 118°55'0 0.0
2015-Jan-24 03:34N 25°03' E 118°55'7 6.8
2015-Jan-24 02:33N 25°03' E 119°03'1 0.6
2015-Jan-24 01:29N 25°04' E 119°03'0 0.1
2015-Jan-24 00:29N 25°04' E 119°03'0 0.1
2015-Jan-23 23:29N 25°04' E 119°03'0 0.0
2015-Jan-23 22:29N 25°04' E 119°03'0 0.1
2015-Jan-23 21:23N 25°04' E 119°03'0 0.0
2015-Jan-23 20:29N 25°04' E 119°03'0 0.0
2015-Jan-23 19:17N 25°04' E 119°03'0 0.1
2015-Jan-23 18:29N 25°04' E 119°03'0 0.0
2015-Jan-23 17:23N 25°04' E 119°03'0 0.0
2015-Jan-23 16:29N 25°04' E 119°03'0 0.1
2015-Jan-23 15:29N 25°04' E 119°03'0 0.0
2015-Jan-23 14:29N 25°04' E 119°03'0 0.0
2015-Jan-23 13:05N 25°04' E 119°03'0 0.0
2015-Jan-23 12:29N 25°04' E 119°03'0 0.0
2015-Jan-23 11:17N 25°04' E 119°03'0 0.1
2015-Jan-23 10:23N 25°04' E 119°03'0 0.1
2015-Jan-23 09:29N 25°04' E 119°03'0 0.1
2015-Jan-23 08:29N 25°04' E 119°03'0 0.1
2015-Jan-23 07:29N 25°04' E 119°03'0 0.0
2015-Jan-23 06:29N 25°04' E 119°03'0 0.0
2015-Jan-23 05:23N 25°04' E 119°03'0 0.0
2015-Jan-23 04:29N 25°04' E 119°03'0 0.1
2015-Jan-23 03:29N 25°04' E 119°03'0 0.0
2015-Jan-23 02:29N 25°04' E 119°03'0 0.1
2015-Jan-23 01:17N 25°04' E 119°03'0 0.1
2015-Jan-23 00:29N 25°04' E 119°03'0 0.1
2015-Jan-22 23:29N 25°04' E 119°03'0 0.1
2015-Jan-22 22:23N 25°04' E 119°03'0 0.1
2015-Jan-22 21:29N 25°04' E 119°03'0 0.0
2015-Jan-22 20:11N 25°04' E 119°03'0 0.0
2015-Jan-22 19:29N 25°04' E 119°03'0 0.0
2015-Jan-22 18:29N 25°04' E 119°03'0 0.0
2015-Jan-22 17:29N 25°04' E 119°03'0 0.0
2015-Jan-22 16:17N 25°04' E 119°03'0 0.0
2015-Jan-22 15:29N 25°04' E 119°03'0 0.1
2015-Jan-22 14:29N 25°04' E 119°03'0 0.0
2015-Jan-22 13:29N 25°04' E 119°03'0 0.0
2015-Jan-22 12:32N 25°04' E 119°03'0 0.0
2015-Jan-22 11:29N 25°04' E 119°03'0 0.0
2015-Jan-22 10:29N 25°04' E 119°03'0 0.0
2015-Jan-22 09:23N 25°04' E 119°03'0 0.0
2015-Jan-22 08:29N 25°04' E 119°03'0 0.2
2015-Jan-22 07:29N 25°04' E 119°03'0 0.1
2015-Jan-22 06:29N 25°04' E 119°03'0 0.1
2015-Jan-22 05:29N 25°04' E 119°03'0 0.0
2015-Jan-22 04:29N 25°04' E 119°03'0 0.0
2015-Jan-22 03:29N 25°04' E 119°03'0 0.0
2015-Jan-22 02:29N 25°04' E 119°03'0 0.0
2015-Jan-22 01:29N 25°04' E 119°03'0 0.1
2015-Jan-22 00:29N 25°04' E 119°03'0 0.0
2015-Jan-21 23:29N 25°04' E 119°03'0 0.0
2015-Jan-21 22:47N 25°04' E 119°03'0 0.5
2015-Jan-21 22:41N 25°04' E 119°03'0 0.0
2015-Jan-21 22:29N 25°04' E 119°03'0 0.1
2015-Jan-21 21:29N 25°04' E 119°03'0 0.1
2015-Jan-21 20:29N 25°04' E 119°03'0 0.0
2015-Jan-21 19:17N 25°04' E 119°03'0 0.0
2015-Jan-21 18:17N 25°04' E 119°03'0 0.0
2015-Jan-21 17:29N 25°04' E 119°03'0 0.0
2015-Jan-21 16:29N 25°04' E 119°03'0 0.1
2015-Jan-21 15:29N 25°04' E 119°03'0 0.1
2015-Jan-21 14:29N 25°04' E 119°03'0 0.1
2015-Jan-21 13:29N 25°04' E 119°03'0 0.1
2015-Jan-21 12:29N 25°04' E 119°03'0 0.0
2015-Jan-21 11:29N 25°04' E 119°03'0 0.1
2015-Jan-21 10:32N 25°04' E 119°03'0 0.1
2015-Jan-21 09:32N 25°04' E 119°03'0 0.1
2015-Jan-21 08:29N 25°04' E 119°03'0 0.1
2015-Jan-21 07:29N 25°04' E 119°03'0 0.0
2015-Jan-21 06:29N 25°04' E 119°03'0 0.0
2015-Jan-21 05:32N 25°04' E 119°03'0 0.1
2015-Jan-21 04:32N 25°04' E 119°03'0 0.0
2015-Jan-21 03:32N 25°04' E 119°03'0 0.1
2015-Jan-21 02:32N 25°04' E 119°03'3 3.5
2015-Jan-21 01:33N 25°04' E 118°59'7 7.3
2015-Jan-21 00:33N 24°58' E 119°04'  
Track history (hours):
 
Tides and Currents Weather Stations Pressure Air Temp Water Temp Dewpoint Dewpoint Depression Visibility Wind Speed Wind Dir Waves Ship Positions

Hong Xiang 2

Last reported at 2015-Jan-31 00:32 UTC. Time now 2015-Jan-31 00:48 UTC.
Position N 22°02' E 113°45'.

Length 96 m; draft 4.5 m.

Type: Ship (hazmat cat A). MMSI: 413413000.

Date/timePositionNaut miles runAvg speedWind from/ knotsBaromVisibWave heightAir tempDewpointWater temp
2015-Jan-31 00:32N 22°02' E 113°45'5 5.2
2015-Jan-30 23:30N 21°59' E 113°41'0 0.0
2015-Jan-30 22:30N 21°59' E 113°41'0 0.0
2015-Jan-30 21:30N 21°59' E 113°41'0 0.0
2015-Jan-30 20:30N 21°59' E 113°41'0 0.0
2015-Jan-30 15:30N 21°59' E 113°41'0 0.0
2015-Jan-30 11:30N 21°59' E 113°41'0 0.0
2015-Jan-30 10:30N 21°59' E 113°41'0 0.0
2015-Jan-30 09:30N 21°59' E 113°41'0 0.0
2015-Jan-30 08:30N 21°59' E 113°41'0 0.0
2015-Jan-30 07:18N 21°59' E 113°41'0 0.0
2015-Jan-30 06:30N 21°59' E 113°41'0 0.0
2015-Jan-30 05:30N 21°59' E 113°41'0 0.0
2015-Jan-30 04:30N 21°59' E 113°41'0 0.0
2015-Jan-30 03:24N 21°59' E 113°41'0 0.0
2015-Jan-30 02:12N 21°59' E 113°41'0 0.0
2015-Jan-30 01:24N 21°59' E 113°41'0 0.0
2015-Jan-29 21:24N 21°59' E 113°41'0 0.0
2015-Jan-29 18:30N 21°59' E 113°41'0 0.0
2015-Jan-29 17:12N 21°59' E 113°41'0 0.0
2015-Jan-29 16:30N 21°59' E 113°41'0 0.0
2015-Jan-29 15:33N 21°59' E 113°41'21 9.9
2015-Jan-29 13:25N 21°48' E 113°21'  
2015-Jan-27 07:30N 21°35' E 112°59'1411.3
2015-Jan-27 06:18N 21°42' E 113°11'1111.3
2015-Jan-27 05:21N 21°48' E 113°21'2011.1
2015-Jan-27 03:33N 21°58' E 113°39'1111.1
2015-Jan-27 02:34N 22°03' E 113°50'18 1.8
2015-Jan-26 16:17N 22°08' E 114°09'911.2
2015-Jan-26 15:30N 22°09' E 114°18'14110.8
2015-Jan-26 02:23N 22°59' E 116°41'1211.2
2015-Jan-26 01:21N 23°04' E 116°52'4811.2
2015-Jan-25 21:04N 23°33' E 117°34'610.9
2015-Jan-25 20:33N 23°36' E 117°39'1110.3
2015-Jan-25 19:26N 23°44' E 117°48'910.0
2015-Jan-25 18:31N 23°50' E 117°55'11 9.9
2015-Jan-25 17:26N 23°57' E 118°04'8 9.2
2015-Jan-25 16:33N 24°03' E 118°10'10 9.6
2015-Jan-25 15:31N 24°10' E 118°18'39 9.8
2015-Jan-25 11:33N 24°37' E 118°48'1010.4
2015-Jan-25 10:33N 24°45' E 118°56'1110.7
2015-Jan-25 09:33N 24°54' E 119°03'1110.8
2015-Jan-25 08:33N 25°04' E 119°01'5 5.4
2015-Jan-25 07:33N 25°03' E 118°55'0 0.0
2015-Jan-24 03:34N 25°03' E 118°55'7 6.8
2015-Jan-24 02:33N 25°03' E 119°03'1 0.6
2015-Jan-24 01:29N 25°04' E 119°03'0 0.1
2015-Jan-24 00:29N 25°04' E 119°03'0 0.1
2015-Jan-23 23:29N 25°04' E 119°03'0 0.0
2015-Jan-23 22:29N 25°04' E 119°03'0 0.1
2015-Jan-23 21:23N 25°04' E 119°03'0 0.0
2015-Jan-23 20:29N 25°04' E 119°03'0 0.0
2015-Jan-23 19:17N 25°04' E 119°03'0 0.1
2015-Jan-23 18:29N 25°04' E 119°03'0 0.0
2015-Jan-23 17:23N 25°04' E 119°03'0 0.0
2015-Jan-23 16:29N 25°04' E 119°03'0 0.1
2015-Jan-23 15:29N 25°04' E 119°03'0 0.0
2015-Jan-23 14:29N 25°04' E 119°03'0 0.0
2015-Jan-23 13:05N 25°04' E 119°03'0 0.0
2015-Jan-23 12:29N 25°04' E 119°03'0 0.0
2015-Jan-23 11:17N 25°04' E 119°03'0 0.1
2015-Jan-23 10:23N 25°04' E 119°03'0 0.1
2015-Jan-23 09:29N 25°04' E 119°03'0 0.1
2015-Jan-23 08:29N 25°04' E 119°03'0 0.1
2015-Jan-23 07:29N 25°04' E 119°03'0 0.0
2015-Jan-23 06:29N 25°04' E 119°03'0 0.0
2015-Jan-23 05:23N 25°04' E 119°03'0 0.0
2015-Jan-23 04:29N 25°04' E 119°03'0 0.1
2015-Jan-23 03:29N 25°04' E 119°03'0 0.0
2015-Jan-23 02:29N 25°04' E 119°03'0 0.1
2015-Jan-23 01:17N 25°04' E 119°03'0 0.1
2015-Jan-23 00:29N 25°04' E 119°03'0 0.1
2015-Jan-22 23:29N 25°04' E 119°03'0 0.1
2015-Jan-22 22:23N 25°04' E 119°03'0 0.1
2015-Jan-22 21:29N 25°04' E 119°03'0 0.0
2015-Jan-22 20:11N 25°04' E 119°03'0 0.0
2015-Jan-22 19:29N 25°04' E 119°03'0 0.0
2015-Jan-22 18:29N 25°04' E 119°03'0 0.0
2015-Jan-22 17:29N 25°04' E 119°03'0 0.0
2015-Jan-22 16:17N 25°04' E 119°03'0 0.0
2015-Jan-22 15:29N 25°04' E 119°03'0 0.1
2015-Jan-22 14:29N 25°04' E 119°03'0 0.0
2015-Jan-22 13:29N 25°04' E 119°03'0 0.0
2015-Jan-22 12:32N 25°04' E 119°03'0 0.0
2015-Jan-22 11:29N 25°04' E 119°03'0 0.0
2015-Jan-22 10:29N 25°04' E 119°03'0 0.0
2015-Jan-22 09:23N 25°04' E 119°03'0 0.0
2015-Jan-22 08:29N 25°04' E 119°03'0 0.2
2015-Jan-22 07:29N 25°04' E 119°03'0 0.1
2015-Jan-22 06:29N 25°04' E 119°03'0 0.1
2015-Jan-22 05:29N 25°04' E 119°03'0 0.0
2015-Jan-22 04:29N 25°04' E 119°03'0 0.0
2015-Jan-22 03:29N 25°04' E 119°03'0 0.0
2015-Jan-22 02:29N 25°04' E 119°03'0 0.0
2015-Jan-22 01:29N 25°04' E 119°03'0 0.1
2015-Jan-22 00:29N 25°04' E 119°03'0 0.0
2015-Jan-21 23:29N 25°04' E 119°03'0 0.0
2015-Jan-21 22:47N 25°04' E 119°03'0 0.5
2015-Jan-21 22:41N 25°04' E 119°03'0 0.0
2015-Jan-21 22:29N 25°04' E 119°03'0 0.1
2015-Jan-21 21:29N 25°04' E 119°03'0 0.1
2015-Jan-21 20:29N 25°04' E 119°03'0 0.0
2015-Jan-21 19:17N 25°04' E 119°03'0 0.0
2015-Jan-21 18:17N 25°04' E 119°03'0 0.0
2015-Jan-21 17:29N 25°04' E 119°03'0 0.0
2015-Jan-21 16:29N 25°04' E 119°03'0 0.1
2015-Jan-21 15:29N 25°04' E 119°03'0 0.1
2015-Jan-21 14:29N 25°04' E 119°03'0 0.1
2015-Jan-21 13:29N 25°04' E 119°03'0 0.1
2015-Jan-21 12:29N 25°04' E 119°03'0 0.0
2015-Jan-21 11:29N 25°04' E 119°03'0 0.1
2015-Jan-21 10:32N 25°04' E 119°03'0 0.1
2015-Jan-21 09:32N 25°04' E 119°03'0 0.1
2015-Jan-21 08:29N 25°04' E 119°03'0 0.1
2015-Jan-21 07:29N 25°04' E 119°03'0 0.0
2015-Jan-21 06:29N 25°04' E 119°03'0 0.0
2015-Jan-21 05:32N 25°04' E 119°03'0 0.1
2015-Jan-21 04:32N 25°04' E 119°03'0 0.0
2015-Jan-21 03:32N 25°04' E 119°03'0 0.1
2015-Jan-21 02:32N 25°04' E 119°03'3 3.5
2015-Jan-21 01:33N 25°04' E 118°59'7 7.3
2015-Jan-21 00:33N 24°58' E 119°04'  

Dump ship's entire track history